createdAt,value
2018-01-23T00:00:29.169Z,61.37
2018-01-23T00:02:56.636Z,74.47
2018-01-23T00:05:24.076Z,55.90
2018-01-23T00:07:51.533Z,50.30
2018-01-23T00:10:18.983Z,47.87
2018-01-23T00:12:46.444Z,46.33
2018-01-23T00:15:13.896Z,46.03
2018-01-23T00:17:41.355Z,46.93
2018-01-23T00:20:08.813Z,52.50
2018-01-23T00:22:36.316Z,54.77
2018-01-23T00:25:04.548Z,43.30
2018-01-23T00:27:32.004Z,38.40
2018-01-23T00:29:59.469Z,45.83
2018-01-23T00:32:26.921Z,37.90
2018-01-23T00:34:54.527Z,47.20
2018-01-23T00:37:21.965Z,49.23
2018-01-23T00:39:49.432Z,39.77
2018-01-23T00:42:17.639Z,42.37
2018-01-23T00:44:45.135Z,36.27
2018-01-23T00:47:12.586Z,41.83
2018-01-23T00:49:40.068Z,34.73
2018-01-23T00:52:08.299Z,48.90
2018-01-23T00:54:35.753Z,37.23
2018-01-23T00:57:03.221Z,41.43
2018-01-23T00:59:30.671Z,52.07
2018-01-23T01:01:58.123Z,48.77
2018-01-23T01:04:25.582Z,55.07
2018-01-23T01:06:53.013Z,63.03
2018-01-23T01:09:20.453Z,56.60
2018-01-23T01:11:48.670Z,52.20
2018-01-23T01:14:16.107Z,53.77
2018-01-23T01:16:43.581Z,57.87
2018-01-23T01:19:11.228Z,56.77
2018-01-23T01:21:38.701Z,47.13
2018-01-23T01:24:06.157Z,45.37
2018-01-23T01:26:33.620Z,60.40
2018-01-23T01:29:01.075Z,57.00
2018-01-23T01:31:28.533Z,49.50
2018-01-23T01:33:55.990Z,49.00
2018-01-23T01:36:23.430Z,50.97
2018-01-23T01:38:50.884Z,48.33
2018-01-23T01:41:18.339Z,51.33
2018-01-23T01:43:45.807Z,42.07
2018-01-23T01:46:13.238Z,44.80
2018-01-23T01:48:52.343Z,43.07
2018-01-23T01:51:19.790Z,39.60
2018-01-23T01:53:47.257Z,39.03
2018-01-23T01:56:14.716Z,35.20
2018-01-23T01:58:42.149Z,38.30
2018-01-23T02:01:09.618Z,35.07
2018-01-23T02:03:37.144Z,31.87
2018-01-23T02:06:04.568Z,32.30
2018-01-23T02:08:32.027Z,35.10
2018-01-23T02:10:59.468Z,34.27
2018-01-23T02:13:26.932Z,32.50
2018-01-23T02:15:55.135Z,29.23
2018-01-23T02:18:22.604Z,37.97
2018-01-23T02:20:50.046Z,29.83
2018-01-23T02:23:17.521Z,30.90
2018-01-23T02:25:45.164Z,38.87
2018-01-23T02:28:12.616Z,30.47
2018-01-23T02:30:40.072Z,24.33
2018-01-23T02:33:07.520Z,23.07
2018-01-23T02:35:34.965Z,28.23
2018-01-23T02:38:02.409Z,26.70
2018-01-23T02:40:29.856Z,29.87
2018-01-23T02:42:57.304Z,25.20
2018-01-23T02:45:24.758Z,39.30
2018-01-23T02:47:52.288Z,23.10
2018-01-23T02:50:19.727Z,27.83
2018-01-23T02:52:47.180Z,25.60
2018-01-23T02:55:14.637Z,32.27
2018-01-23T02:57:42.128Z,24.80
2018-01-23T03:00:09.533Z,25.80
2018-01-23T03:02:37.754Z,24.93
2018-01-23T03:05:05.214Z,23.30
2018-01-23T03:07:32.672Z,25.13
2018-01-23T03:10:00.309Z,24.33
2018-01-23T03:12:27.752Z,21.50
2018-01-23T03:14:55.207Z,26.00
2018-01-23T03:17:23.439Z,22.53
2018-01-23T03:19:50.894Z,27.50
2018-01-23T03:22:18.374Z,24.70
2018-01-23T03:24:45.795Z,18.50
2018-01-23T03:27:13.244Z,25.03
2018-01-23T03:29:40.680Z,26.63
2018-01-23T03:32:08.339Z,24.47
2018-01-23T03:34:35.801Z,18.10
2018-01-23T03:37:03.235Z,21.20
2018-01-23T03:39:30.702Z,18.33
2018-01-23T03:41:58.147Z,18.50
2018-01-23T03:44:25.603Z,14.87
2018-01-23T03:46:53.829Z,19.00
2018-01-23T03:49:21.271Z,17.80
2018-01-23T03:51:48.733Z,18.50
2018-01-23T03:54:16.374Z,18.70
2018-01-23T03:56:43.812Z,16.20
2018-01-23T03:59:11.281Z,16.00
2018-01-23T04:01:38.716Z,12.10
2018-01-23T04:04:06.160Z,11.80
2018-01-23T04:06:33.620Z,15.10
2018-01-23T04:09:01.058Z,12.63
2018-01-23T04:11:28.548Z,16.90
2018-01-23T04:13:56.000Z,12.77
2018-01-23T04:16:23.513Z,14.13
2018-01-23T04:18:50.972Z,11.50
2018-01-23T04:21:18.430Z,11.30
2018-01-23T04:23:45.873Z,17.00
2018-01-23T04:26:13.331Z,15.83
2018-01-23T04:28:40.769Z,11.23
2018-01-23T04:31:08.223Z,11.47
2018-01-23T04:33:35.677Z,7.97
2018-01-23T04:36:03.888Z,13.80
2018-01-23T04:38:31.332Z,10.20
2018-01-23T04:40:58.825Z,12.60
2018-01-23T04:43:26.239Z,9.27
2018-01-23T04:45:53.702Z,11.57
2018-01-23T04:48:21.142Z,11.17
2018-01-23T04:50:49.360Z,11.83
2018-01-23T04:53:16.814Z,10.20
2018-01-23T04:55:44.254Z,11.30
2018-01-23T04:58:11.795Z,8.57
2018-01-23T05:00:39.228Z,10.03
2018-01-23T05:03:06.681Z,11.47
2018-01-23T05:05:34.122Z,12.40
2018-01-23T05:08:01.579Z,9.30
2018-01-23T05:10:29.016Z,7.70
2018-01-23T05:12:56.488Z,10.43
2018-01-23T05:15:23.924Z,7.67
2018-01-23T05:17:51.659Z,10.13
2018-01-23T05:20:19.217Z,8.60
2018-01-23T05:22:46.659Z,12.57
2018-01-23T05:25:14.092Z,9.13
2018-01-23T05:27:41.535Z,8.37
2018-01-23T05:30:08.965Z,9.23
2018-01-23T05:32:36.426Z,12.73
2018-01-23T05:35:03.906Z,10.40
2018-01-23T05:37:31.348Z,7.57
2018-01-23T05:39:58.769Z,8.70
2018-01-23T05:42:26.340Z,9.73
2018-01-23T05:44:53.797Z,13.03
2018-01-23T05:47:21.240Z,13.00
2018-01-23T05:49:49.449Z,12.93
2018-01-23T05:52:16.913Z,9.20
2018-01-23T05:54:44.378Z,9.53
2018-01-23T05:57:11.817Z,10.33
2018-01-23T05:59:39.283Z,11.10
2018-01-23T06:02:06.740Z,10.60
2018-01-23T06:04:34.382Z,9.30
2018-01-23T06:07:01.838Z,8.33
2018-01-23T06:09:29.296Z,10.20
2018-01-23T06:11:56.765Z,11.80
2018-01-23T06:14:24.196Z,11.63
2018-01-23T06:16:51.645Z,12.30
2018-01-23T06:19:19.122Z,11.17
2018-01-23T06:21:46.570Z,12.27
2018-01-23T06:24:14.019Z,10.47
2018-01-23T06:26:41.480Z,12.07
2018-01-23T06:29:08.953Z,9.67
2018-01-23T06:31:36.400Z,11.17
2018-01-23T06:34:03.898Z,8.23
2018-01-23T06:36:31.353Z,11.50
2018-01-23T06:38:58.826Z,12.70
2018-01-23T06:41:26.257Z,9.00
2018-01-23T06:43:53.728Z,10.53
2018-01-23T06:46:21.171Z,10.20
2018-01-23T06:48:48.646Z,10.90
2018-01-23T06:51:16.098Z,13.40
2018-01-23T06:53:43.545Z,12.83
2018-01-23T06:56:10.989Z,12.80
2018-01-23T06:58:38.436Z,12.70
2018-01-23T07:01:05.870Z,11.47
2018-01-23T07:03:33.360Z,11.13
2018-01-23T07:06:00.856Z,12.97
2018-01-23T07:08:28.291Z,10.77
2018-01-23T07:10:56.620Z,15.03
2018-01-23T07:13:24.068Z,15.00
2018-01-23T07:15:52.807Z,12.77
2018-01-23T07:18:20.274Z,16.27
2018-01-23T07:20:47.721Z,14.20
2018-01-23T07:23:15.175Z,13.60
2018-01-23T07:25:42.620Z,18.90
2018-01-23T07:28:10.091Z,13.83
2018-01-23T07:30:37.517Z,15.17
2018-01-23T07:33:04.968Z,14.73
2018-01-23T07:35:33.208Z,13.87
2018-01-23T07:38:00.686Z,19.03
2018-01-23T07:40:28.142Z,14.00
2018-01-23T07:42:55.605Z,14.47
2018-01-23T07:45:23.833Z,14.17
2018-01-23T07:47:51.282Z,14.53
2018-01-23T07:50:18.758Z,14.57
2018-01-23T07:52:46.218Z,14.97
2018-01-23T07:55:13.727Z,14.53
2018-01-23T07:57:41.180Z,10.93
2018-01-23T08:00:08.636Z,13.43
2018-01-23T08:02:36.951Z,14.17
2018-01-23T08:05:04.406Z,17.57
2018-01-23T08:07:31.845Z,13.57
2018-01-23T08:09:59.305Z,14.07
2018-01-23T08:12:26.778Z,15.93
2018-01-23T08:14:54.249Z,14.00
2018-01-23T08:17:21.689Z,16.27
2018-01-23T08:19:49.150Z,13.60
2018-01-23T08:22:16.588Z,12.20
2018-01-23T08:24:44.048Z,10.07
2018-01-23T08:27:11.715Z,15.13
2018-01-23T08:29:39.192Z,10.70
2018-01-23T08:32:06.735Z,12.67
2018-01-23T08:34:34.202Z,15.40
2018-01-23T08:37:01.644Z,9.60
2018-01-23T08:39:29.139Z,12.50
2018-01-23T08:41:56.596Z,15.83
2018-01-23T08:44:24.035Z,8.30
2018-01-23T08:46:51.489Z,13.50
2018-01-23T08:49:18.942Z,10.73
2018-01-23T08:51:46.392Z,8.77
2018-01-23T08:54:13.854Z,10.33
2018-01-23T08:56:41.317Z,10.00
2018-01-23T08:59:08.777Z,18.00
2018-01-23T09:01:36.252Z,12.80
2018-01-23T09:04:03.713Z,10.80
2018-01-23T09:06:31.164Z,14.00
2018-01-23T09:08:58.596Z,14.43
2018-01-23T09:11:26.100Z,10.03
2018-01-23T09:13:53.532Z,8.60
2018-01-23T09:16:20.997Z,14.53
2018-01-23T09:18:48.452Z,10.57
2018-01-23T09:21:15.907Z,8.10
2018-01-23T09:23:43.420Z,9.13
2018-01-23T09:26:11.018Z,12.37
2018-01-23T09:28:38.460Z,9.40
2018-01-23T09:31:05.915Z,9.23
2018-01-23T09:33:33.400Z,8.63
2018-01-23T09:36:00.840Z,7.17
2018-01-23T09:38:28.305Z,8.83
2018-01-23T09:40:55.754Z,8.27
2018-01-23T09:43:24.856Z,11.77
2018-01-23T09:45:52.298Z,16.20
2018-01-23T09:48:19.814Z,9.17
2018-01-23T09:50:47.444Z,13.07
2018-01-23T09:53:14.905Z,8.23
2018-01-23T09:55:42.356Z,10.70
2018-01-23T09:58:09.808Z,9.10
2018-01-23T10:00:37.247Z,6.87
2018-01-23T10:03:04.703Z,9.40
2018-01-23T10:05:32.296Z,10.17
2018-01-23T10:07:59.736Z,5.97
2018-01-23T10:10:27.386Z,10.13
2018-01-23T10:12:54.865Z,11.27
2018-01-23T10:15:22.328Z,9.03
2018-01-23T10:17:49.769Z,7.67
2018-01-23T10:20:17.215Z,9.37
2018-01-23T10:22:44.664Z,11.43
2018-01-23T10:25:12.190Z,13.40
2018-01-23T10:27:40.575Z,6.97
2018-01-23T10:30:08.020Z,7.23
2018-01-23T10:32:35.487Z,9.00
2018-01-23T10:35:03.701Z,10.77
2018-01-23T10:37:31.161Z,7.33
2018-01-23T10:39:58.635Z,7.43
2018-01-23T10:42:26.073Z,6.60
2018-01-23T10:44:53.556Z,7.07
2018-01-23T10:47:20.984Z,9.50
2018-01-23T10:49:48.642Z,9.67
2018-01-23T10:52:16.095Z,8.47
2018-01-23T10:54:43.567Z,9.03
2018-01-23T10:57:11.047Z,8.20
2018-01-23T10:59:38.672Z,8.80
2018-01-23T11:02:06.100Z,8.10
2018-01-23T11:04:33.550Z,7.03
2018-01-23T11:07:01.037Z,11.00
2018-01-23T11:09:28.825Z,5.07
2018-01-23T11:11:56.372Z,6.87
2018-01-23T11:14:23.825Z,7.60
2018-01-23T11:16:51.304Z,5.77
2018-01-23T11:19:18.760Z,8.20
2018-01-23T11:21:46.211Z,6.23
2018-01-23T11:24:13.681Z,6.00
2018-01-23T11:26:41.153Z,6.87
2018-01-23T11:29:09.385Z,6.13
2018-01-23T11:31:36.842Z,7.37
2018-01-23T11:34:04.372Z,7.43
2018-01-23T11:36:31.866Z,6.00
2018-01-23T11:38:59.354Z,9.43
2018-01-23T11:41:26.837Z,5.10
2018-01-23T11:43:54.368Z,10.80
2018-01-23T11:46:21.823Z,7.63
2018-01-23T11:48:49.276Z,5.80
2018-01-23T11:51:16.867Z,7.03
2018-01-23T11:53:44.247Z,5.70
2018-01-23T11:56:19.189Z,10.13
2018-01-23T11:58:46.623Z,6.00
2018-01-23T12:01:14.910Z,9.20
2018-01-23T12:03:42.408Z,6.53
2018-01-23T12:06:09.984Z,6.57
2018-01-23T12:08:37.542Z,7.13
2018-01-23T12:11:05.817Z,7.87
2018-01-23T12:13:33.334Z,5.60
2018-01-23T12:16:00.811Z,7.70
2018-01-23T12:18:29.146Z,8.27
2018-01-23T12:20:56.688Z,6.03
2018-01-23T12:23:24.149Z,7.10
2018-01-23T12:25:52.453Z,9.03
2018-01-23T12:28:19.942Z,6.93
2018-01-23T12:30:47.418Z,9.70
2018-01-23T12:33:14.868Z,5.93
2018-01-23T12:35:42.348Z,7.13
2018-01-23T12:38:10.604Z,5.80
2018-01-23T12:40:38.051Z,10.20
2018-01-23T12:43:05.540Z,7.87
2018-01-23T12:45:33.013Z,6.77
2018-01-23T12:48:00.509Z,8.67
2018-01-23T12:50:28.005Z,9.10
2018-01-23T12:52:55.525Z,9.90
2018-01-23T12:55:22.930Z,8.00
2018-01-23T12:57:51.142Z,9.80
2018-01-23T13:00:18.613Z,9.33
2018-01-23T13:02:46.062Z,10.33
2018-01-23T13:05:13.509Z,11.00
2018-01-23T13:07:40.974Z,7.60
2018-01-23T13:10:08.643Z,7.00
2018-01-23T13:12:36.112Z,11.73
2018-01-23T13:15:03.597Z,6.93
2018-01-23T13:17:31.052Z,7.57
2018-01-23T13:19:58.541Z,9.23
2018-01-23T13:22:26.001Z,10.93
2018-01-23T13:24:53.454Z,9.63
2018-01-23T13:27:20.918Z,7.27
2018-01-23T13:29:48.409Z,8.93
2018-01-23T13:32:15.892Z,7.93
2018-01-23T13:34:43.351Z,9.50
2018-01-23T13:37:10.812Z,11.10
2018-01-23T13:39:38.266Z,8.73
2018-01-23T13:42:05.714Z,6.97
2018-01-23T13:44:33.292Z,6.47
2018-01-23T13:47:00.760Z,8.70
2018-01-23T13:49:28.188Z,8.27
2018-01-23T13:51:55.666Z,9.50
2018-01-23T13:54:23.106Z,6.90
2018-01-23T13:56:50.553Z,8.30
2018-01-23T13:59:18.023Z,10.50
2018-01-23T14:01:45.461Z,6.70
2018-01-23T14:04:12.917Z,9.90
2018-01-23T14:06:40.547Z,10.97
2018-01-23T14:09:08.008Z,9.40
2018-01-23T14:11:35.491Z,8.57
2018-01-23T14:14:02.989Z,7.70
2018-01-23T14:16:30.452Z,7.33
2018-01-23T14:18:58.678Z,7.73
2018-01-23T14:21:26.172Z,6.63
2018-01-23T14:23:53.612Z,5.77
2018-01-23T14:26:21.079Z,8.00
2018-01-23T14:28:48.603Z,5.43
2018-01-23T14:31:16.074Z,5.83
2018-01-23T14:33:43.553Z,5.90
2018-01-23T14:36:11.017Z,6.03
2018-01-23T14:38:38.489Z,4.80
2018-01-23T14:41:06.711Z,8.13
2018-01-23T14:43:34.143Z,5.93
2018-01-23T14:46:01.619Z,6.60
2018-01-23T14:48:29.079Z,6.97
2018-01-23T14:50:56.593Z,5.97
2018-01-23T14:53:24.832Z,7.13
2018-01-23T14:55:52.285Z,6.47
2018-01-23T14:58:19.747Z,8.23
2018-01-23T15:00:47.178Z,9.40
2018-01-23T15:03:14.644Z,8.20
2018-01-23T15:05:42.107Z,11.60
2018-01-23T15:08:09.553Z,5.70
2018-01-23T15:10:36.988Z,5.60
2018-01-23T15:13:04.748Z,9.27
2018-01-23T15:15:32.105Z,6.50
2018-01-23T15:17:59.560Z,5.00
2018-01-23T15:20:27.029Z,8.37
2018-01-23T15:22:54.472Z,5.90
2018-01-23T15:25:21.933Z,6.43
2018-01-23T15:27:49.508Z,7.67
2018-01-23T15:30:16.970Z,8.00
2018-01-23T15:32:44.400Z,12.33
2018-01-23T15:35:12.113Z,8.97
2018-01-23T15:37:39.529Z,7.90
2018-01-23T15:40:07.069Z,7.70
2018-01-23T15:42:35.314Z,10.77
2018-01-23T15:45:02.764Z,8.37
2018-01-23T15:47:30.300Z,6.60
2018-01-23T15:49:57.752Z,8.27
2018-01-23T15:52:25.226Z,6.73
2018-01-23T15:54:52.666Z,8.90
2018-01-23T15:57:20.101Z,8.23
2018-01-23T15:59:47.582Z,16.23
2018-01-23T16:02:15.045Z,11.93
2018-01-23T16:04:42.703Z,8.83
2018-01-23T16:07:10.117Z,6.80
2018-01-23T16:09:38.358Z,7.73
2018-01-23T16:12:05.824Z,15.30
2018-01-23T16:14:33.271Z,9.00
2018-01-23T16:17:00.833Z,10.80
2018-01-23T16:19:28.526Z,10.27
2018-01-23T16:21:55.997Z,10.37
2018-01-23T16:24:23.433Z,7.77
2018-01-23T16:26:50.887Z,9.37
2018-01-23T16:29:18.331Z,13.17
2018-01-23T16:31:45.786Z,6.50
2018-01-23T16:34:13.228Z,7.73
2018-01-23T16:36:40.688Z,10.20
2018-01-23T16:39:08.155Z,7.10
2018-01-23T16:41:35.595Z,8.43
2018-01-23T16:44:03.035Z,6.63
2018-01-23T16:46:30.493Z,8.30
2018-01-23T16:48:57.932Z,7.53
2018-01-23T16:51:25.389Z,5.90
2018-01-23T16:53:52.816Z,8.73
2018-01-23T16:56:20.272Z,6.63
2018-01-23T16:58:47.718Z,8.87
2018-01-23T17:01:15.224Z,7.43
2018-01-23T17:03:42.681Z,9.60
2018-01-23T17:06:10.126Z,9.97
2018-01-23T17:08:37.595Z,6.03
2018-01-23T17:11:05.033Z,5.50
2018-01-23T17:13:32.486Z,6.77
2018-01-23T17:16:00.694Z,7.10
2018-01-23T17:18:28.161Z,9.50
2018-01-23T17:20:55.612Z,12.93
2018-01-23T17:23:23.247Z,8.10
2018-01-23T17:25:50.740Z,7.77
2018-01-23T17:28:18.201Z,7.20
2018-01-23T17:30:45.671Z,7.30
2018-01-23T17:33:13.351Z,8.20
2018-01-23T17:35:40.832Z,8.27
2018-01-23T17:38:08.322Z,8.27
2018-01-23T17:40:35.780Z,9.23
2018-01-23T17:43:03.366Z,9.07
2018-01-23T17:45:31.095Z,10.13
2018-01-23T17:47:58.593Z,11.73
2018-01-23T17:50:26.066Z,8.80
2018-01-23T17:52:54.511Z,9.70
2018-01-23T17:55:21.985Z,11.50
2018-01-23T17:57:49.444Z,9.17
2018-01-23T18:00:16.897Z,10.00
2018-01-23T18:02:44.381Z,8.77
2018-01-23T18:05:11.849Z,7.63
2018-01-23T18:07:40.268Z,8.00
2018-01-23T18:10:07.768Z,8.03
2018-01-23T18:12:35.267Z,9.40
2018-01-23T18:15:02.755Z,10.93
2018-01-23T18:17:30.511Z,10.07
2018-01-23T18:19:57.952Z,10.40
2018-01-23T18:22:25.414Z,10.77
2018-01-23T18:24:52.889Z,7.17
2018-01-23T18:27:20.358Z,7.43
2018-01-23T18:29:47.954Z,7.33
2018-01-23T18:32:15.408Z,8.40
2018-01-23T18:34:42.848Z,10.80
2018-01-23T18:37:10.284Z,8.03
2018-01-23T18:39:37.766Z,12.53
2018-01-23T18:42:05.244Z,7.80
2018-01-23T18:44:33.449Z,8.10
2018-01-23T18:47:01.608Z,8.57
2018-01-23T18:49:29.038Z,8.60
2018-01-23T18:51:56.641Z,8.20
2018-01-23T18:54:24.098Z,8.40
2018-01-23T18:56:51.634Z,10.00
2018-01-23T18:59:19.089Z,8.17
2018-01-23T19:01:46.526Z,10.37
2018-01-23T19:04:13.996Z,8.97
2018-01-23T19:06:42.217Z,8.30
2018-01-23T19:09:09.656Z,6.30
2018-01-23T19:11:37.126Z,10.00
2018-01-23T19:14:04.640Z,8.87
2018-01-23T19:16:32.847Z,7.90
2018-01-23T19:19:00.288Z,8.23
2018-01-23T19:21:27.735Z,12.10
2018-01-23T19:23:55.169Z,8.40
2018-01-23T19:26:22.612Z,9.73
2018-01-23T19:28:50.052Z,14.20
2018-01-23T19:31:17.508Z,9.40
2018-01-23T19:33:44.980Z,9.43
2018-01-23T19:36:12.402Z,9.10
2018-01-23T19:38:39.858Z,10.73
2018-01-23T19:41:07.319Z,12.47
2018-01-23T19:43:34.761Z,12.80
2018-01-23T19:46:02.200Z,10.63
2018-01-23T19:48:29.665Z,8.17
2018-01-23T19:50:57.104Z,8.13
2018-01-23T19:53:24.570Z,7.53
2018-01-23T19:55:52.910Z,10.27
2018-01-23T19:58:20.428Z,9.83
2018-01-23T20:00:47.867Z,9.37
2018-01-23T20:03:15.333Z,11.57
2018-01-23T20:05:42.757Z,8.97
2018-01-23T20:08:10.214Z,9.60
2018-01-23T20:10:37.653Z,10.27
2018-01-23T20:13:05.096Z,12.30
2018-01-23T20:15:32.557Z,12.13
2018-01-23T20:17:59.992Z,12.33
2018-01-23T20:20:27.485Z,17.63
2018-01-23T20:22:54.930Z,15.20
2018-01-23T20:25:22.385Z,10.30
2018-01-23T20:27:50.083Z,10.47
2018-01-23T20:30:17.534Z,9.10
2018-01-23T20:32:45.762Z,10.97
2018-01-23T20:35:13.236Z,9.97
2018-01-23T20:37:40.689Z,9.30
2018-01-23T20:40:08.135Z,10.87
2018-01-23T20:42:35.589Z,8.67
2018-01-23T20:45:03.032Z,9.53
2018-01-23T20:47:30.502Z,8.90
2018-01-23T20:49:57.959Z,9.80
2018-01-23T20:52:25.416Z,9.90
2018-01-23T20:54:52.856Z,12.37
2018-01-23T20:57:20.305Z,7.30
2018-01-23T20:59:47.762Z,12.33
2018-01-23T21:02:15.222Z,10.40
2018-01-23T21:04:42.682Z,10.13
2018-01-23T21:07:10.121Z,12.30
2018-01-23T21:09:37.646Z,9.83
2018-01-23T21:12:05.036Z,12.77
2018-01-23T21:14:32.497Z,10.10
2018-01-23T21:16:59.922Z,7.90
2018-01-23T21:19:27.371Z,9.97
2018-01-23T21:21:54.820Z,10.93
2018-01-23T21:24:23.856Z,13.23
2018-01-23T21:26:52.105Z,17.77
2018-01-23T21:29:19.533Z,11.30
2018-01-23T21:31:47.000Z,14.50
2018-01-23T21:34:14.507Z,14.47
2018-01-23T21:36:42.700Z,19.73
2018-01-23T21:39:10.168Z,21.65
2018-01-23T21:41:37.642Z,18.27
2018-01-23T21:44:05.099Z,20.73
2018-01-23T21:46:32.551Z,22.40
2018-01-23T21:49:00.017Z,12.97
2018-01-23T21:51:27.489Z,17.20
2018-01-23T21:53:54.925Z,11.73
2018-01-23T21:56:22.374Z,16.00
2018-01-23T21:58:49.833Z,14.87
2018-01-23T22:01:17.276Z,12.98
2018-01-23T22:03:44.732Z,13.00
2018-01-23T22:06:12.187Z,11.85
2018-01-23T22:08:39.644Z,11.88
2018-01-23T22:11:07.115Z,15.32
2018-01-23T22:13:34.560Z,14.30
2018-01-23T22:16:02.016Z,10.53
2018-01-23T22:18:29.445Z,13.60
2018-01-23T22:20:56.961Z,12.23
2018-01-23T22:23:24.408Z,11.57
2018-01-23T22:25:51.858Z,22.87
2018-01-23T22:28:19.299Z,16.53
2018-01-23T22:30:46.768Z,12.80
2018-01-23T22:33:14.234Z,9.83
2018-01-23T22:35:41.686Z,13.00
2018-01-23T22:38:09.144Z,12.90
2018-01-23T22:40:36.613Z,20.47
2018-01-23T22:43:04.088Z,13.27
2018-01-23T22:45:31.536Z,9.87
2018-01-23T22:47:58.996Z,12.30
2018-01-23T22:50:27.188Z,13.77
2018-01-23T22:52:54.781Z,12.70
2018-01-23T22:55:22.217Z,14.20
2018-01-23T22:57:49.674Z,12.55
2018-01-23T23:00:17.121Z,14.17
2018-01-23T23:02:44.565Z,12.30
2018-01-23T23:05:12.019Z,9.30
2018-01-23T23:07:39.460Z,10.35
2018-01-23T23:10:06.924Z,8.70
2018-01-23T23:12:34.373Z,14.10
2018-01-23T23:15:01.894Z,8.82
2018-01-23T23:17:30.129Z,6.97
2018-01-23T23:19:57.562Z,8.53
2018-01-23T23:22:25.021Z,10.10
2018-01-23T23:24:52.468Z,8.05
2018-01-23T23:27:19.928Z,10.73
2018-01-23T23:29:47.387Z,9.90
2018-01-23T23:32:14.854Z,10.57
2018-01-23T23:34:42.311Z,9.52
2018-01-23T23:37:09.964Z,7.12
2018-01-23T23:39:37.438Z,9.95
2018-01-23T23:42:04.895Z,9.38
2018-01-23T23:44:32.341Z,9.93
2018-01-23T23:46:59.804Z,13.70
2018-01-23T23:49:27.255Z,8.50
2018-01-23T23:51:54.712Z,10.37
2018-01-23T23:54:22.197Z,8.27
2018-01-23T23:56:49.632Z,8.25
2018-01-23T23:59:17.088Z,13.05
